Station: Applethorpe

  Atmospheric Gas Attenuation - ITU Rec 676-11   --------------- db/100km ---------------
Date Time Temp RH % AH g/m3 Dew Point Wind Direction Speed kph Gust kph Barometer mB Rainfall Since 9am 24GHz 47GHz 76GHz 122GHz 134GHz 241GHz
27 02:40 19.8 90 15.37 18.1 4 6 1013.1 0 33.7 35.6 65.1 171.9 183.5 636.2
27 01:30 19.8 90 15.37 18.1 6 13 1010.4 0 33.7 35.4 64.9 171.5 183.1 635.0
27 02:30 19.8 90 15.37 18.1 6 13 1010.4 0 33.7 35.4 64.9 171.5 183.1 635.0
27 02:20 19.9 89 15.29 18 6 9 1013.1 0 33.5 35.4 64.6 170.7 182.0 631.2
27 02:10 19.9 89 15.29 18 7 9 1013.1 0 33.5 35.4 64.6 170.7 182.0 631.2
27 02:00 19.9 89 15.29 18 6 9 1010.6 0 33.5 35.3 64.5 170.3 181.7 630.0
27 01:50 19.9 88 15.12 17.8 4 6 1013.1 0 33.2 35.1 63.8 168.6 179.5 622.3
27 01:40 19.9 88 15.12 17.8 6 6 1013.1 0 33.2 35.1 63.8 168.6 179.5 622.3
27 01:20 20.2 87 15.21 17.9 4 6 1013.1 0 33.3 35.1 64.0 169.0 180.1 624.5
27 01:10 20.2 87 15.21 17.9 6 9 1013.1 0 33.3 35.1 64.0 169.0 180.1 624.5
27 01:00 20.3 87 15.3 18.1 6 11 1011 0 33.5 35.1 64.2 169.6 180.9 627.4
27 00:50 20.3 87 15.3 18 2 4 1013.1 0 33.5 35.2 64.3 169.9 181.2 628.4
27 00:40 20.3 87 15.3 18 2 2 1013.1 0 33.5 35.2 64.3 169.9 181.2 628.4
27 00:30 20.5 87 15.48 18.3 6 13 1011.5 0 33.9 35.4 64.9 171.4 183.2 635.4
27 00:20 20.5 87 15.48 18.2 7 13 1013.1 0 33.9 35.5 65.0 171.6 183.4 636.1
27 00:10 20.6 87 15.57 18.3 4 6 1013.1 0 34.1 35.6 65.3 172.5 184.5 640.0
27 00:00 20.6 87 15.57 18.4 7 13 1011.8 0 34.1 35.5 65.2 172.3 184.3 639.4
26 23:50 20.5 87 15.48 18.2 6 6 1013.1 0 33.9 35.5 65.0 171.6 183.4 636.1
26 23:40 20.5 87 15.48 18.2 6 6 1013.1 0 33.9 35.5 65.0 171.6 183.4 636.1
26 23:30 20.5 87 15.48 18.3 6 11 1011.6 0 33.9 35.4 64.9 171.4 183.2 635.4
26 23:20 20.6 85 15.21 18.1 6 7 1013.1 0 33.3 34.9 63.7 168.1 179.1 621.2
26 23:10 20.8 84 15.21 18.1 7 11 1013.1 0 33.3 34.8 63.5 167.7 178.7 619.6
26 23:00 20.8 85 15.39 18.2 4 6 1011.7 0 33.7 35.1 64.2 169.7 181.1 628.3
26 22:50 20.7 84 15.12 18 6 7 1013.1 0 33.1 34.7 63.2 166.8 177.6 615.8
26 22:40 20.8 84 15.21 18 2 6 1013.1 0 33.3 34.8 63.5 167.7 178.7 619.6
26 22:30 20.8 82 14.85 17.6 4 7 1011.4 0 32.5 34.1 61.8 163.1 173.1 600.4
26 22:20 20.9 82 14.93 17.7 6 6 1013.1 0 32.7 34.3 62.2 164.1 174.3 604.4
26 22:10 21.1 81 14.92 17.7 6 7 1013.1 0 32.6 34.2 61.9 163.6 173.7 602.3
26 22:00 21.2 80 14.82 17.6 7 9 1011.5 0 32.4 33.9 61.3 162.0 171.8 595.8
26 21:50 21.3 80 14.91 17.7 6 9 1013.1 0 32.6 34.1 61.7 163.0 173.1 600.3
26 21:40 21.2 79 14.64 17.4 7 7 1013.1 0 32.0 33.7 60.6 160.0 169.4 587.3
26 21:30 21.3 78 14.54 17.3 4 7 1011.5 0 31.8 33.4 60.0 158.4 167.5 580.9
26 21:20 21.5 77 14.52 17.3 4 6 1013.1 0 31.7 33.3 59.9 158.0 167.0 579.0
26 21:10 21.7 77 14.69 17.5 6 6 1013.1 0 32.1 33.6 60.4 159.6 169.0 586.0
26 21:00 21.8 78 14.96 17.8 7 13 1010.8 0 32.7 33.9 61.4 162.2 172.4 597.9
26 20:50 21.9 76 14.66 17.6 4 4 1013.1 0 32.0 33.4 60.2 158.8 168.1 583.0
26 20:40 22 74 14.36 17.3 6 7 1013.1 0 31.4 32.9 58.8 155.1 163.6 567.3
26 20:30 22.2 74 14.53 17.3 7 15 1010.4 0 31.7 33.0 59.2 156.3 165.3 573.1
26 20:20 22.3 73 14.41 17.2 7 9 1013.1 0 31.4 32.8 58.8 155.1 163.7 567.6
26 20:10 22.6 72 14.46 17.3 9 15 1013.1 0 31.5 32.8 58.7 155.1 163.7 567.9
26 20:00 22.8 71 14.43 17.3 9 15 1009.8 0 31.5 32.5 58.3 153.9 162.5 563.5
26 19:50 23 70 14.39 17.2 7 11 1013.1 0 31.4 32.5 58.1 153.5 161.9 561.5
26 19:40 23.3 69 14.43 17.3 7 9 1013.1 0 31.4 32.5 58.1 153.4 161.8 561.3
26 19:30 23.5 67 14.17 17 7 9 1009.5 0 30.9 31.8 56.6 149.6 157.4 545.8
26 19:20 23.6 65 13.82 16.6 7 9 1013.1 0 30.1 31.3 55.3 145.9 152.8 529.7
26 19:10 23.9 61 13.2 16.1 6 11 1013.1 0 28.8 30.2 52.5 138.6 143.8 498.5
26 19:00 24.2 59 12.98 15.9 7 11 1009.2 0 28.3 29.6 51.2 135.2 139.9 485.0
26 18:50 24.4 58 12.91 15.8 6 7 1013.1 0 28.1 29.6 51.0 134.6 139.0 482.0
26 18:40 24.8 58 13.2 16.2 4 6 1013.1 0 28.7 29.9 51.9 137.0 142.1 492.8
26 18:30 25.1 59 13.66 16.5 7 13 1008.8 0 29.7 30.4 53.4 140.9 147.2 510.5
26 18:20 25.4 58 13.65 16.5 7 11 1013.1 0 29.6 30.4 53.4 140.8 147.0 509.8
26 18:10 25.6 56 13.33 16.4 9 11 1013.1 0 28.9 29.8 51.9 137.0 142.4 493.8
26 18:00 25.7 56 13.41 16.5 6 11 1008.4 0 29.1 29.8 52.0 137.1 142.7 495.0
26 17:50 25.8 56 13.48 16.6 6 7 1013.1 0 29.2 30.0 52.4 138.2 144.0 499.4
26 17:40 25.8 58 13.96 17.1 4 6 1013.1 0 30.2 30.8 54.3 143.4 150.3 521.5
26 17:30 25.3 61 14.28 17.2 6 9 1008.3 0 31.0 31.3 55.7 147.2 155.1 538.0
26 17:20 25.4 59 13.89 17 4 4 1013.1 0 30.1 30.8 54.3 143.4 150.2 520.9
26 17:10 25.6 55 13.09 16.1 2 2 1013.1 0 28.4 29.4 51.0 134.4 139.3 482.8
26 17:00 25.7 56 13.41 16.5 6 9 1008.3 0 29.1 29.7 51.9 137.1 142.7 495.0
26 16:50 25.6 55 13.09 16.1 7 7 1013.1 0 28.4 29.4 51.0 134.4 139.3 482.8
26 16:40 26.2 52 12.8 15.8 7 11 1013.1 0 27.8 28.8 49.5 130.4 134.5 466.2
26 16:30 26.1 54 13.22 16.1 9 13 1008.1 0 28.7 29.3 50.9 134.4 139.5 483.8
26 16:20 26.4 55 13.69 16.6 11 13 1013.1 0 29.6 30.1 52.8 139.4 145.6 505.2
26 16:10 26.7 56 14.18 17.4 6 6 1013.1 0 30.6 30.8 54.6 144.1 151.5 525.7
26 16:00 26.2 54 13.29 16.4 9 19 1008.4 0 28.8 29.4 51.1 135.0 140.3 486.5
26 15:50 26.7 51 12.91 15.7 9 11 1013.1 0 28.0 28.8 49.6 130.7 135.0 468.1
26 15:40 26.8 47 11.96 14.8 9 11 1013.1 0 26.0 27.3 45.9 120.9 122.9 425.9
26 15:30 27.1 44 11.39 13.8 6 13 1008.5 0 24.8 26.2 43.4 114.3 115.1 398.5
26 15:20 27.6 43 11.44 13.9 4 6 1013.1 0 24.8 26.3 43.5 114.5 115.4 399.6
26 15:10 27.5 46 12.17 15.1 4 4 1013.1 0 26.4 27.4 46.3 121.9 124.4 431.2
26 15:00 27 47 12.1 14.7 0 2 1008.9 0 26.3 27.3 46.1 121.5 123.9 429.4
26 14:50 26.9 46 11.77 14.6 0 0 1013.1 0 25.6 27.0 45.1 118.8 120.4 417.2
26 14:40 26.7 49 12.4 15.1 9 11 1013.1 0 26.9 28.0 47.6 125.5 128.6 445.6
26 14:30 26.3 52 12.87 15.7 6 9 1009.3 0 27.9 28.7 49.5 130.5 134.8 467.3
26 14:20 26.2 51 12.56 15.5 7 9 1013.1 0 27.3 28.4 48.5 127.9 131.4 455.5
26 14:10 26.3 50 12.38 15.3 6 6 1013.1 0 26.9 28.1 47.8 125.9 129.0 446.9
26 14:00 27.4 51 13.42 16.4 7 11 1009.7 0 29.0 29.2 51.0 134.4 139.9 485.4
26 13:50 26 55 13.39 16.5 7 11 1013.1 0 29.0 29.8 51.9 136.9 142.4 494.0
26 13:40 25.3 55 12.88 15.6 6 6 1013.1 0 28.0 29.2 50.3 132.7 137.1 475.1
26 13:30 25.9 54 13.07 15.9 7 15 1009.9 0 28.4 29.2 50.5 133.3 138.1 478.9
26 13:20 25.9 52 12.59 15.5 11 13 1013.1 0 27.4 28.6 48.8 128.7 132.3 458.5
26 13:10 26.4 51 12.7 15.7 6 6 1013.1 0 27.5 28.6 48.9 129.0 132.8 460.5
26 13:00 26.2 50 12.31 15 7 13 1010.2 0 26.8 27.9 47.4 125.0 127.9 443.4
26 12:50 26.7 52 13.16 16 7 9 1013.1 0 28.5 29.2 50.5 133.3 138.2 479.3
26 12:40 25.5 55 13.02 15.8 11 15 1013.1 0 28.3 29.4 50.8 133.9 138.5 480.3
26 12:30 25.8 54 13 15.8 7 13 1010.5 0 28.2 29.1 50.4 132.8 137.5 476.6
26 12:20 25.6 54 12.86 15.6 9 9 1013.1 0 27.9 29.1 50.1 132.0 136.3 472.4
26 12:10 24.7 57 12.9 15.6 6 7 1013.1 0 28.1 29.4 50.8 133.9 138.4 479.7
26 12:00 24.9 56 12.82 15.5 7 13 1010.6 0 27.9 29.2 50.2 132.5 136.7 473.9
26 11:50 25.8 56 13.48 16.6 6 9 1013.1 0 29.2 30.0 52.4 138.2 144.0 499.4
26 11:40 24.9 57 13.05 16 7 11 1013.1 0 28.4 29.6 51.3 135.2 140.0 485.3
26 11:30 25.1 61 14.12 17.1 7 20 1010.9 0 30.6 31.2 55.4 146.2 153.6 532.9
26 11:20 24.8 58 13.2 16.2 11 15 1013.1 0 28.7 29.9 51.9 137.0 142.1 492.8
26 11:10 24.3 63 13.94 17 6 7 1013.1 0 30.3 31.3 55.3 145.9 153.0 530.7
26 11:00 24 61 13.27 16 6 9 1011.2 0 28.9 30.2 52.7 138.9 144.3 500.4
26 10:50 23.9 65 14.06 16.9 9 11 1013.1 0 30.6 31.6 56.1 148.0 155.5 539.1
26 10:40 23.4 65 13.67 16.6 6 6 1013.1 0 29.8 31.2 54.8 144.6 151.1 523.9
26 10:30 23.3 67 14.01 16.8 4 9 1011.2 0 30.5 31.7 56.2 148.4 155.8 540.2
26 10:20 22.9 67 13.69 16.4 2 2 1013.1 0 29.9 31.4 55.2 145.8 152.4 528.3
26 10:10 22.8 69 14.02 16.8 2 4 1013.1 0 30.6 32.0 56.7 149.7 157.1 544.9

Last Refresh: 27-Feb-2021 02:31:12

Most of the information presented on this site is sourced from the Bureau of Meteorology.  Copyright in all material sourced from the Bureau of Meteorology resides with the Commonwealth of Australia.